Detroit, Michigan
Current Conditions -  °F | °C
As of 8:00 AM on Thursday 30 Oct 2014 (Local Time) from CYQG Reporting Station
Broken Clouds Broken Clouds  
Wind Chill:   Ceiling: 2500
Heat Index:   Visibility: 15mi
Dew Point:   Wind: 7mph
Humidity: 70%   Direction: 360°N
Pressure: 30.12"   Gusts: NA
Location:  42.33°N, 83.05°W
Report Text: CYQG 301200Z 36006KT 15SM BKN025 05/M00 A3012 RMK SC5 SLP204
Loading
Personal Weather Stations






























Interactive Weather Map
Tropical Storm Tracking
New forecast layout! Learn more

10-Day Weather Forecast

Advertisements
Track Severe Weather on mobile